createdAt,value
2018-04-13T00:01:10.548Z,18.10
2018-04-13T00:03:37.380Z,18.10
2018-04-13T00:06:04.213Z,18.00
2018-04-13T00:08:30.291Z,18.00
2018-04-13T00:10:56.362Z,18.00
2018-04-13T00:13:22.431Z,17.90
2018-04-13T00:15:48.512Z,17.90
2018-04-13T00:18:14.590Z,17.80
2018-04-13T00:20:40.676Z,17.70
2018-04-13T00:23:06.748Z,17.60
2018-04-13T00:25:32.835Z,17.50
2018-04-13T00:27:59.656Z,17.30
2018-04-13T00:30:25.731Z,17.30
2018-04-13T00:32:57.902Z,17.20
2018-04-13T00:35:23.988Z,17.10
2018-04-13T00:37:50.062Z,17.00
2018-04-13T00:40:16.143Z,16.80
2018-04-13T00:42:42.960Z,16.50
2018-04-13T00:45:09.048Z,16.50
2018-04-13T00:47:35.116Z,16.40
2018-04-13T00:50:01.194Z,16.30
2018-04-13T00:52:27.343Z,16.10
2018-04-13T00:54:53.420Z,16.00
2018-04-13T00:57:20.233Z,16.00
2018-04-13T00:59:46.309Z,15.90
2018-04-13T01:02:12.375Z,16.00
2018-04-13T01:04:38.451Z,16.00
2018-04-13T01:07:04.519Z,15.90
2018-04-13T01:09:30.611Z,15.80
2018-04-13T01:11:56.681Z,15.70
2018-04-13T01:14:22.751Z,15.60
2018-04-13T01:16:48.823Z,15.60
2018-04-13T01:19:14.891Z,15.60
2018-04-13T01:21:41.707Z,15.40
2018-04-13T01:24:07.781Z,15.40
2018-04-13T01:26:33.864Z,15.40
2018-04-13T01:28:59.933Z,15.30
2018-04-13T01:31:26.007Z,15.30
2018-04-13T01:33:52.076Z,15.20
2018-04-13T01:36:18.159Z,15.20
2018-04-13T01:38:44.223Z,15.20
2018-04-13T01:41:10.320Z,15.10
2018-04-13T01:43:37.148Z,15.00
2018-04-13T01:46:03.221Z,15.00
2018-04-13T01:48:29.284Z,15.00
2018-04-13T01:50:55.358Z,15.00
2018-04-13T01:53:21.428Z,14.90
2018-04-13T01:55:47.512Z,14.90
2018-04-13T01:58:13.579Z,14.90
2018-04-13T02:00:39.663Z,14.80
2018-04-13T02:03:05.740Z,14.80
2018-04-13T02:05:31.815Z,14.80
2018-04-13T02:07:57.887Z,14.70
2018-04-13T02:10:23.979Z,14.80
2018-04-13T02:12:50.055Z,14.80
2018-04-13T02:15:16.114Z,14.90
2018-04-13T02:17:42.195Z,14.90
2018-04-13T02:20:08.263Z,14.90
2018-04-13T02:22:34.336Z,14.80
2018-04-13T02:25:00.402Z,14.70
2018-04-13T02:27:27.297Z,14.60
2018-04-13T02:29:54.059Z,14.60
2018-04-13T02:32:20.136Z,14.60
2018-04-13T02:34:46.196Z,14.60
2018-04-13T02:37:12.267Z,14.70
2018-04-13T02:39:39.075Z,14.80
2018-04-13T02:42:05.156Z,14.80
2018-04-13T02:44:31.231Z,14.90
2018-04-13T02:46:57.328Z,15.00
2018-04-13T02:49:23.419Z,15.00
2018-04-13T02:51:49.500Z,15.00
2018-04-13T02:54:15.575Z,15.10
2018-04-13T02:56:41.656Z,15.20
2018-04-13T02:59:07.723Z,15.20
2018-04-13T03:01:33.827Z,15.20
2018-04-13T03:04:00.638Z,15.10
2018-04-13T03:06:26.716Z,15.10
2018-04-13T03:08:52.816Z,15.10
2018-04-13T03:11:19.628Z,15.10
2018-04-13T03:13:45.708Z,15.10
2018-04-13T03:16:11.776Z,15.10
2018-04-13T03:18:37.852Z,15.10
2018-04-13T03:21:03.927Z,15.00
2018-04-13T03:23:30.012Z,15.00
2018-04-13T03:25:56.092Z,15.00
2018-04-13T03:28:22.161Z,15.00
2018-04-13T03:30:48.232Z,15.00
2018-04-13T03:33:14.315Z,14.90
2018-04-13T03:35:40.384Z,15.00
2018-04-13T03:38:06.460Z,15.10
2018-04-13T03:40:32.524Z,15.00
2018-04-13T03:42:58.600Z,15.00
2018-04-13T03:45:24.668Z,15.00
2018-04-13T03:47:50.751Z,15.10
2018-04-13T03:50:16.828Z,15.20
2018-04-13T03:52:42.899Z,15.30
2018-04-13T03:55:08.974Z,15.50
2018-04-13T03:57:35.052Z,15.60
2018-04-13T04:00:01.116Z,15.80
2018-04-13T04:02:27.186Z,15.90
2018-04-13T04:04:54.003Z,16.00
2018-04-13T04:07:20.077Z,16.00
2018-04-13T04:09:46.155Z,16.10
2018-04-13T04:12:12.230Z,16.10
2018-04-13T04:14:38.315Z,16.10
2018-04-13T04:17:04.386Z,16.10
2018-04-13T04:19:49.231Z,16.10
2018-04-13T04:22:34.043Z,16.00
2018-04-13T04:25:19.047Z,15.90
2018-04-13T04:27:46.659Z,15.70
2018-04-13T04:30:12.724Z,15.70
2018-04-13T04:32:38.796Z,15.60
2018-04-13T04:35:04.872Z,15.60
2018-04-13T04:37:30.944Z,15.60
2018-04-13T04:39:57.016Z,15.60
2018-04-13T04:42:23.084Z,15.60
2018-04-13T04:44:49.162Z,15.70
2018-04-13T04:47:15.244Z,15.80
2018-04-13T04:49:41.319Z,15.90
2018-04-13T04:52:07.402Z,16.20
2018-04-13T04:54:33.475Z,16.40
2018-04-13T04:56:59.543Z,16.50
2018-04-13T04:59:25.611Z,16.60
2018-04-13T05:01:52.424Z,16.70
2018-04-13T05:04:18.516Z,16.70
2018-04-13T05:06:45.332Z,16.80
2018-04-13T05:09:12.152Z,16.90
2018-04-13T05:11:38.228Z,16.90
2018-04-13T05:14:04.312Z,16.90
2018-04-13T05:16:30.395Z,17.10
2018-04-13T05:18:56.468Z,17.20
2018-04-13T05:21:22.560Z,17.30
2018-04-13T05:23:48.645Z,17.40
2018-04-13T05:26:15.469Z,17.50
2018-04-13T05:28:41.542Z,17.50
2018-04-13T05:31:07.621Z,17.60
2018-04-13T05:33:33.689Z,17.60
2018-04-13T05:35:59.767Z,17.70
2018-04-13T05:38:25.835Z,17.80
2018-04-13T05:40:51.928Z,17.90
2018-04-13T05:43:18.747Z,18.00
2018-04-13T05:45:44.836Z,18.00
2018-04-13T05:48:10.909Z,18.00
2018-04-13T05:50:36.983Z,18.00
2018-04-13T05:53:03.052Z,18.10
2018-04-13T05:55:29.140Z,18.20
2018-04-13T06:01:00.477Z,18.40
2018-04-13T06:03:27.291Z,18.80
2018-04-13T06:05:54.119Z,19.00
2018-04-13T06:08:20.205Z,19.00
2018-04-13T06:10:46.275Z,19.10
2018-04-13T06:13:12.352Z,19.20
2018-04-13T06:15:38.447Z,19.20
2018-04-13T06:18:04.516Z,19.20
2018-04-13T06:20:30.584Z,19.20
2018-04-13T06:22:56.664Z,19.20
2018-04-13T06:25:22.731Z,19.20
2018-04-13T06:27:48.812Z,19.20
2018-04-13T06:30:14.902Z,19.10
2018-04-13T06:32:40.968Z,19.00
2018-04-13T06:35:07.039Z,18.90
2018-04-13T06:37:33.108Z,18.90
2018-04-13T06:39:59.177Z,18.90
2018-04-13T06:42:25.265Z,18.90
2018-04-13T06:44:51.339Z,18.90
2018-04-13T06:47:17.419Z,18.90
2018-04-13T06:49:43.485Z,18.90
2018-04-13T06:52:09.568Z,18.90
2018-04-13T06:54:35.641Z,18.90
2018-04-13T06:57:01.728Z,18.90
2018-04-13T06:59:27.795Z,18.90
2018-04-13T07:01:54.616Z,19.10
2018-04-13T07:04:20.687Z,19.10
2018-04-13T07:06:46.776Z,19.20
2018-04-13T07:09:12.856Z,19.40
2018-04-13T07:11:38.929Z,19.50
2018-04-13T07:14:05.012Z,19.60
2018-04-13T07:16:31.080Z,19.60
2018-04-13T07:18:57.152Z,19.70
2018-04-13T07:21:23.217Z,19.70
2018-04-13T07:23:49.292Z,19.60
2018-04-13T07:26:15.370Z,19.60
2018-04-13T07:28:41.481Z,19.60
2018-04-13T07:31:07.550Z,19.60
2018-04-13T07:33:34.367Z,19.70
2018-04-13T07:36:00.449Z,19.60
2018-04-13T07:38:26.528Z,19.60
2018-04-13T07:40:52.601Z,19.50
2018-04-13T07:43:18.690Z,19.50
2018-04-13T07:45:45.516Z,19.60
2018-04-13T07:48:11.584Z,19.60
2018-04-13T07:50:55.177Z,19.70
2018-04-13T07:53:21.279Z,19.90
2018-04-13T07:55:47.353Z,20.20
2018-04-13T07:58:14.171Z,20.90
2018-04-13T08:00:40.235Z,20.90
2018-04-13T08:03:06.309Z,21.40
2018-04-13T08:05:32.371Z,21.90
2018-04-13T08:07:59.203Z,22.40
2018-04-13T08:10:26.024Z,22.60
2018-04-13T08:12:52.098Z,22.50
2018-04-13T08:15:18.184Z,22.80
2018-04-13T08:17:44.247Z,23.00
2018-04-13T08:20:10.321Z,23.10
2018-04-13T08:22:36.401Z,23.20
2018-04-13T08:25:02.472Z,23.10
2018-04-13T08:27:28.552Z,22.80
2018-04-13T08:29:54.647Z,22.50
2018-04-13T08:32:21.464Z,22.30
2018-04-13T08:34:47.545Z,22.20
2018-04-13T08:37:13.624Z,22.60
2018-04-13T08:39:39.704Z,23.00
2018-04-13T08:42:05.777Z,23.20
2018-04-13T08:44:31.885Z,23.40
2018-04-13T08:46:57.953Z,23.50
2018-04-13T08:49:24.039Z,23.70
2018-04-13T08:51:50.104Z,23.80
2018-04-13T08:54:16.940Z,23.70
2018-04-13T08:56:43.791Z,23.70
2018-04-13T08:59:10.619Z,23.90
2018-04-13T09:01:37.423Z,23.90
2018-04-13T09:04:03.501Z,23.90
2018-04-13T09:06:30.330Z,23.30
2018-04-13T09:08:57.156Z,22.70
2018-04-13T09:11:23.224Z,22.70
2018-04-13T09:13:52.746Z,22.30
2018-04-13T09:16:19.826Z,22.10
2018-04-13T09:18:45.900Z,22.00
2018-04-13T09:21:20.148Z,22.10
2018-04-13T09:23:46.315Z,22.30
2018-04-13T09:26:12.391Z,22.40
2018-04-13T09:28:38.461Z,22.50
2018-04-13T09:31:04.533Z,22.60
2018-04-13T09:33:30.605Z,22.50
2018-04-13T09:35:56.683Z,22.30
2018-04-13T09:38:22.743Z,22.10
2018-04-13T09:40:48.881Z,22.10
2018-04-13T09:43:14.910Z,21.90
2018-04-13T09:45:41.000Z,21.90
2018-04-13T09:48:07.071Z,22.10
2018-04-13T09:50:33.891Z,22.90
2018-04-13T09:52:59.956Z,22.90
2018-04-13T09:55:26.033Z,23.10
2018-04-13T09:57:52.107Z,23.10
2018-04-13T10:00:24.371Z,22.90
2018-04-13T10:02:57.260Z,22.60
2018-04-13T10:05:23.333Z,22.60
2018-04-13T10:07:49.409Z,22.60
2018-04-13T10:10:16.228Z,22.30
2018-04-13T10:12:42.297Z,22.30
2018-04-13T10:15:08.375Z,22.10
2018-04-13T10:17:34.448Z,21.90
2018-04-13T10:20:00.518Z,21.50
2018-04-13T10:22:26.591Z,21.20
2018-04-13T10:24:52.667Z,20.90
2018-04-13T10:27:18.744Z,20.70
2018-04-13T10:29:44.817Z,20.80
2018-04-13T10:32:10.888Z,20.90
2018-04-13T10:34:36.960Z,21.00
2018-04-13T10:37:03.045Z,21.10
2018-04-13T10:39:29.116Z,21.20
2018-04-13T10:41:55.200Z,21.20
2018-04-13T10:44:21.272Z,21.00
2018-04-13T10:46:48.845Z,20.70
2018-04-13T10:49:15.672Z,20.70
2018-04-13T10:51:41.752Z,20.60
2018-04-13T10:54:07.824Z,20.80
2018-04-13T10:56:33.913Z,21.00
2018-04-13T10:58:59.975Z,21.40
2018-04-13T11:01:26.052Z,21.90
2018-04-13T11:03:52.132Z,22.20
2018-04-13T11:06:18.200Z,22.40
2018-04-13T11:08:44.288Z,22.60
2018-04-13T11:11:11.152Z,23.60
2018-04-13T11:13:37.236Z,23.60
2018-04-13T11:16:03.295Z,23.90
2018-04-13T11:18:30.113Z,23.70
2018-04-13T11:20:56.230Z,23.70
2018-04-13T11:23:22.315Z,23.70
2018-04-13T11:25:48.386Z,23.50
2018-04-13T11:28:14.481Z,23.40
2018-04-13T11:30:40.556Z,23.30
2018-04-13T11:33:07.379Z,23.40
2018-04-13T11:35:33.443Z,23.30
2018-04-13T11:37:59.521Z,23.40
2018-04-13T11:40:25.586Z,23.40
2018-04-13T11:42:51.665Z,23.60
2018-04-13T11:45:17.744Z,23.80
2018-04-13T11:47:43.816Z,24.00
2018-04-13T11:50:09.879Z,24.40
2018-04-13T11:52:36.709Z,26.00
2018-04-13T11:55:03.511Z,26.90
2018-04-13T11:57:29.583Z,26.90
2018-04-13T11:59:56.396Z,26.90
2018-04-13T12:02:22.493Z,26.80
2018-04-13T12:04:48.564Z,26.60
2018-04-13T12:07:14.675Z,26.40
2018-04-13T12:09:40.811Z,26.10
2018-04-13T12:12:06.905Z,25.90
2018-04-13T12:14:32.974Z,25.60
2018-04-13T12:16:59.824Z,24.60
2018-04-13T12:19:26.652Z,24.20
2018-04-13T12:21:53.464Z,23.90
2018-04-13T12:24:19.547Z,23.90
2018-04-13T12:27:03.545Z,23.70
2018-04-13T12:29:43.015Z,23.40
2018-04-13T12:32:09.839Z,22.90
2018-04-13T12:34:35.925Z,22.90
2018-04-13T12:37:01.997Z,22.70
2018-04-13T12:39:28.065Z,22.60
2018-04-13T12:42:00.439Z,22.50
2018-04-13T12:44:26.529Z,22.50
2018-04-13T12:46:53.343Z,22.30
2018-04-13T12:49:19.423Z,22.30
2018-04-13T12:51:45.492Z,21.80
2018-04-13T12:54:11.581Z,21.20
2018-04-13T12:56:37.664Z,20.50
2018-04-13T12:59:03.787Z,19.90
2018-04-13T13:01:29.863Z,19.60
2018-04-13T13:03:55.943Z,19.40
2018-04-13T13:06:22.012Z,19.30
2018-04-13T13:08:48.142Z,19.40
2018-04-13T13:11:14.913Z,19.90
2018-04-13T13:13:40.997Z,19.90
2018-04-13T13:16:07.083Z,20.20
2018-04-13T13:18:33.175Z,20.50
2018-04-13T13:20:59.247Z,20.80
2018-04-13T13:23:26.068Z,21.30
2018-04-13T13:25:52.136Z,21.30
2018-04-13T13:28:18.204Z,21.70
2018-04-13T13:30:44.323Z,22.30
2018-04-13T13:33:10.359Z,23.10
2018-04-13T13:35:36.431Z,23.70
2018-04-13T13:38:02.503Z,24.50
2018-04-13T13:40:28.588Z,25.50
2018-04-13T13:42:54.675Z,26.30
2018-04-13T13:45:20.762Z,26.90
2018-04-13T13:47:46.836Z,27.40
2018-04-13T13:50:13.652Z,28.00
2018-04-13T13:52:39.737Z,27.90
2018-04-13T13:55:05.808Z,28.10
2018-04-13T13:57:31.903Z,28.20
2018-04-13T13:59:57.979Z,28.40
2018-04-13T14:02:24.783Z,28.80
2018-04-13T14:04:50.859Z,28.70
2018-04-13T14:07:17.676Z,28.60
2018-04-13T14:09:43.752Z,28.60
2018-04-13T14:12:09.816Z,28.60
2018-04-13T14:14:36.668Z,28.70
2018-04-13T14:17:02.736Z,28.70
2018-04-13T14:19:28.832Z,28.30
2018-04-13T14:21:54.916Z,28.00
2018-04-13T14:24:21.002Z,28.00
2018-04-13T14:26:47.816Z,28.30
2018-04-13T14:29:13.879Z,28.20
2018-04-13T14:31:39.956Z,27.90
2018-04-13T14:34:06.023Z,28.00
2018-04-13T14:36:32.848Z,28.20
2018-04-13T14:38:59.672Z,28.00
2018-04-13T14:41:25.743Z,27.90
2018-04-13T14:43:51.827Z,27.80
2018-04-13T14:46:37.604Z,27.00
2018-04-13T14:49:21.186Z,27.00
2018-04-13T14:52:00.836Z,26.70
2018-04-13T14:57:54.900Z,26.00
2018-04-13T15:00:20.980Z,25.40
2018-04-13T15:02:47.062Z,24.80
2018-04-13T15:05:13.880Z,23.70
2018-04-13T15:07:39.944Z,23.70
2018-04-13T15:10:06.016Z,23.10
2018-04-13T15:12:32.095Z,22.60
2018-04-13T15:14:58.155Z,22.20
2018-04-13T15:17:24.229Z,21.60
2018-04-13T15:19:51.044Z,20.40
2018-04-13T15:22:17.130Z,20.30
2018-04-13T15:24:43.207Z,19.80
2018-04-13T15:27:09.288Z,19.40
2018-04-13T15:29:35.367Z,18.90
2018-04-13T15:32:01.461Z,18.50
2018-04-13T15:34:27.556Z,18.10
2018-04-13T15:36:53.648Z,17.90
2018-04-13T15:39:20.468Z,17.50
2018-04-13T15:41:46.557Z,17.40
2018-04-13T15:44:12.623Z,17.30
2018-04-13T15:46:38.703Z,17.20
2018-04-13T15:49:04.773Z,17.10
2018-04-13T15:51:30.866Z,17.00
2018-04-13T15:53:56.939Z,16.90
2018-04-13T15:56:23.760Z,16.70
2018-04-13T15:58:49.832Z,16.70
2018-04-13T16:01:15.921Z,16.60
2018-04-13T16:03:41.997Z,16.50
2018-04-13T16:06:08.096Z,16.40
2018-04-13T16:08:34.899Z,16.20
2018-04-13T16:11:00.998Z,16.20
2018-04-13T16:13:27.081Z,16.10
2018-04-13T16:15:53.901Z,15.90
2018-04-13T16:18:19.964Z,15.90
2018-04-13T16:20:46.037Z,15.80
2018-04-13T16:23:12.119Z,15.60
2018-04-13T16:25:38.205Z,15.40
2018-04-13T16:28:04.279Z,15.20
2018-04-13T16:30:30.361Z,15.10
2018-04-13T16:32:56.440Z,14.90
2018-04-13T16:35:22.516Z,14.70
2018-04-13T16:37:48.616Z,14.50
2018-04-13T16:40:14.715Z,14.40
2018-04-13T16:42:40.824Z,14.30
2018-04-13T16:45:06.901Z,14.20
2018-04-13T16:47:32.981Z,14.20
2018-04-13T16:49:59.063Z,14.10
2018-04-13T16:52:25.131Z,14.10
2018-04-13T16:54:51.216Z,14.10
2018-04-13T16:57:17.294Z,14.10
2018-04-13T16:59:43.364Z,14.00
2018-04-13T17:02:09.445Z,14.00
2018-04-13T17:04:35.514Z,14.00
2018-04-13T17:07:01.604Z,13.90
2018-04-13T17:09:27.695Z,13.90
2018-04-13T17:11:53.763Z,13.90
2018-04-13T17:14:19.852Z,13.90
2018-04-13T17:16:45.920Z,13.90
2018-04-13T17:19:13.492Z,13.90
2018-04-13T17:21:39.561Z,13.90
2018-04-13T17:24:05.645Z,13.90
2018-04-13T17:26:31.720Z,13.90
2018-04-13T17:28:57.804Z,13.90
2018-04-13T17:31:23.882Z,13.80
2018-04-13T17:33:49.946Z,13.80
2018-04-13T17:36:16.007Z,13.80
2018-04-13T17:38:42.092Z,13.80
2018-04-13T17:41:08.172Z,13.80
2018-04-13T17:43:34.244Z,13.80
2018-04-13T17:46:00.325Z,13.70
2018-04-13T17:48:26.427Z,13.70
2018-04-13T17:50:52.501Z,13.70
2018-04-13T17:53:18.567Z,13.70
2018-04-13T17:55:45.387Z,13.70
2018-04-13T17:58:11.477Z,13.70
2018-04-13T18:00:37.560Z,13.70
2018-04-13T18:03:03.667Z,13.70
2018-04-13T18:05:29.728Z,13.60
2018-04-13T18:07:55.823Z,13.60
2018-04-13T18:10:22.653Z,13.50
2018-04-13T18:12:48.724Z,13.50
2018-04-13T18:15:14.795Z,13.40
2018-04-13T18:17:40.875Z,13.40
2018-04-13T18:20:06.955Z,13.40
2018-04-13T18:22:33.035Z,13.30
2018-04-13T18:24:59.108Z,13.30
2018-04-13T18:27:25.176Z,13.30
2018-04-13T18:29:51.247Z,13.20
2018-04-13T18:32:17.316Z,13.20
2018-04-13T18:34:43.397Z,13.20
2018-04-13T18:37:09.465Z,13.20
2018-04-13T18:39:36.276Z,13.20
2018-04-13T18:42:02.342Z,13.20
2018-04-13T18:44:28.424Z,13.20
2018-04-13T18:56:05.109Z,13.20
2018-04-13T18:58:31.191Z,13.10
2018-04-13T19:00:57.261Z,13.10
2018-04-13T19:03:23.333Z,13.00
2018-04-13T19:05:50.892Z,12.90
2018-04-13T19:08:30.224Z,12.90
2018-04-13T19:10:56.305Z,12.90
2018-04-13T19:13:22.380Z,12.90
2018-04-13T19:15:48.471Z,12.90
2018-04-13T19:18:14.532Z,12.90
2018-04-13T19:20:40.603Z,12.90
2018-04-13T19:23:06.664Z,12.90
2018-04-13T19:25:32.732Z,12.90
2018-04-13T19:27:59.543Z,12.90
2018-04-13T19:30:25.617Z,12.90
2018-04-13T19:32:51.688Z,12.90
2018-04-13T19:35:17.781Z,12.90
2018-04-13T19:37:43.848Z,12.90
2018-04-13T19:40:09.933Z,12.90
2018-04-13T19:42:36.012Z,12.80
2018-04-13T19:45:02.080Z,12.80
2018-04-13T19:47:28.161Z,12.80
2018-04-13T19:49:55.003Z,12.80
2018-04-13T19:52:21.072Z,12.80
2018-04-13T19:54:47.139Z,12.80
2018-04-13T19:57:13.216Z,12.80
2018-04-13T19:59:39.288Z,12.80
2018-04-13T20:02:05.365Z,12.80
2018-04-13T20:04:31.441Z,12.80
2018-04-13T20:06:57.519Z,12.80
2018-04-13T20:09:23.583Z,12.80
2018-04-13T20:11:49.656Z,12.80
2018-04-13T20:14:24.654Z,12.70
2018-04-13T20:16:50.736Z,12.70
2018-04-13T20:19:16.808Z,12.70
2018-04-13T20:21:42.918Z,12.70
2018-04-13T20:24:08.995Z,12.70
2018-04-13T20:26:35.124Z,12.60
2018-04-13T20:29:01.211Z,12.60
2018-04-13T20:31:27.288Z,12.60
2018-04-13T20:33:54.093Z,12.50
2018-04-13T20:36:21.186Z,12.50
2018-04-13T20:38:47.996Z,12.40
2018-04-13T20:41:29.279Z,12.30
2018-04-13T20:43:55.347Z,12.30
2018-04-13T20:46:49.972Z,12.20
2018-04-13T20:49:43.135Z,12.10
2018-04-13T20:52:09.211Z,12.00
2018-04-13T20:54:49.233Z,11.80
2018-04-13T20:57:15.315Z,11.80
2018-04-13T20:59:41.388Z,11.80
2018-04-13T21:02:25.120Z,11.80
2018-04-13T21:04:53.219Z,11.80
2018-04-13T21:07:27.377Z,11.80
2018-04-13T21:09:53.448Z,11.80
2018-04-13T21:12:23.692Z,11.80
2018-04-13T21:14:50.515Z,11.80
2018-04-13T21:17:21.564Z,11.80
2018-04-13T21:20:05.371Z,11.80
2018-04-13T21:22:31.539Z,11.80
2018-04-13T21:24:58.356Z,11.70
2018-04-13T21:27:54.184Z,11.70
2018-04-13T21:33:20.456Z,11.70
2018-04-13T21:35:53.715Z,11.60
2018-04-13T21:38:19.794Z,11.60
2018-04-13T21:40:45.856Z,11.70
2018-04-13T21:43:11.931Z,11.70
2018-04-13T21:45:59.567Z,11.60
2018-04-13T21:48:37.293Z,11.70
2018-04-13T21:51:22.595Z,11.70
2018-04-13T21:53:48.663Z,11.70
2018-04-13T21:56:15.482Z,11.60
2018-04-13T21:58:41.559Z,11.70
2018-04-13T22:01:07.643Z,11.70
2018-04-13T22:06:52.595Z,11.70
2018-04-13T22:09:18.767Z,11.70
2018-04-13T22:11:48.776Z,11.70
2018-04-13T22:14:35.360Z,11.70
2018-04-13T22:20:18.395Z,11.70
2018-04-13T22:22:50.938Z,11.70
2018-04-13T22:28:30.431Z,11.70
2018-04-13T22:31:10.072Z,11.70
2018-04-13T22:33:36.250Z,11.70
2018-04-13T22:36:13.235Z,11.70
2018-04-13T22:39:07.960Z,11.60
2018-04-13T22:41:37.515Z,11.60
2018-04-13T22:44:14.656Z,11.60
2018-04-13T22:46:46.259Z,11.60
2018-04-13T22:49:26.280Z,11.60
2018-04-13T22:55:06.634Z,11.50
2018-04-13T22:57:32.712Z,11.50
2018-04-13T22:59:59.531Z,11.50
2018-04-13T23:02:25.592Z,11.50
2018-04-13T23:04:52.406Z,11.50
2018-04-13T23:07:18.476Z,11.50
2018-04-13T23:09:44.564Z,11.50
2018-04-13T23:12:13.783Z,11.50
2018-04-13T23:14:40.613Z,11.40
2018-04-13T23:17:06.693Z,11.40
2018-04-13T23:19:32.776Z,11.40
2018-04-13T23:21:59.592Z,11.40
2018-04-13T23:24:25.667Z,11.40
2018-04-13T23:26:51.741Z,11.30
2018-04-13T23:29:17.823Z,11.40
2018-04-13T23:31:43.899Z,11.30
2018-04-13T23:34:09.990Z,11.30
2018-04-13T23:36:36.063Z,11.30
2018-04-13T23:39:02.875Z,11.30
2018-04-13T23:41:28.952Z,11.30
2018-04-13T23:43:55.024Z,11.30
2018-04-13T23:46:21.116Z,11.20
2018-04-13T23:48:47.187Z,11.20
2018-04-13T23:51:13.264Z,11.20
2018-04-13T23:53:39.338Z,11.20
2018-04-13T23:56:05.422Z,11.20
2018-04-13T23:58:31.488Z,11.20
